sensor_id;sensor_type;location;lat;lon;timestamp;temperature;humidity
12688;DHT22;6408;59.388;17.798;2022-08-19T00:01:15;19.50;99.90
12688;DHT22;6408;59.388;17.798;2022-08-19T00:03:41;19.50;99.90
12688;DHT22;6408;59.388;17.798;2022-08-19T00:06:08;19.50;99.90
12688;DHT22;6408;59.388;17.798;2022-08-19T00:08:35;19.50;99.90
12688;DHT22;6408;59.388;17.798;2022-08-19T00:11:03;19.50;99.90
12688;DHT22;6408;59.388;17.798;2022-08-19T00:13:30;19.60;99.90
12688;DHT22;6408;59.388;17.798;2022-08-19T00:15:57;19.60;99.90
12688;DHT22;6408;59.388;17.798;2022-08-19T00:18:25;19.60;99.90
12688;DHT22;6408;59.388;17.798;2022-08-19T00:20:52;19.60;99.90
12688;DHT22;6408;59.388;17.798;2022-08-19T00:23:18;19.60;99.90
12688;DHT22;6408;59.388;17.798;2022-08-19T00:25:45;19.60;99.90
12688;DHT22;6408;59.388;17.798;2022-08-19T00:28:13;19.60;99.90
12688;DHT22;6408;59.388;17.798;2022-08-19T00:30:40;19.60;99.90
12688;DHT22;6408;59.388;17.798;2022-08-19T00:33:07;19.60;99.90
12688;DHT22;6408;59.388;17.798;2022-08-19T00:35:34;19.60;99.90
12688;DHT22;6408;59.388;17.798;2022-08-19T00:38:02;19.60;99.90
12688;DHT22;6408;59.388;17.798;2022-08-19T00:40:31;19.60;99.90
12688;DHT22;6408;59.388;17.798;2022-08-19T00:42:58;19.60;99.90
12688;DHT22;6408;59.388;17.798;2022-08-19T00:45:28;19.60;99.90
12688;DHT22;6408;59.388;17.798;2022-08-19T00:47:57;19.60;99.90
12688;DHT22;6408;59.388;17.798;2022-08-19T00:50:23;19.60;99.90
12688;DHT22;6408;59.388;17.798;2022-08-19T00:52:51;19.60;99.90
12688;DHT22;6408;59.388;17.798;2022-08-19T00:55:21;19.50;99.90
12688;DHT22;6408;59.388;17.798;2022-08-19T00:57:56;19.50;99.90
12688;DHT22;6408;59.388;17.798;2022-08-19T01:00:27;19.50;99.90
12688;DHT22;6408;59.388;17.798;2022-08-19T01:02:54;19.60;99.90
12688;DHT22;6408;59.388;17.798;2022-08-19T01:05:23;19.50;99.90
12688;DHT22;6408;59.388;17.798;2022-08-19T01:07:53;19.60;99.90
12688;DHT22;6408;59.388;17.798;2022-08-19T01:10:23;19.60;99.90
12688;DHT22;6408;59.388;17.798;2022-08-19T01:12:52;19.60;99.90
12688;DHT22;6408;59.388;17.798;2022-08-19T01:15:23;19.70;99.90
12688;DHT22;6408;59.388;17.798;2022-08-19T01:17:53;19.60;99.90
12688;DHT22;6408;59.388;17.798;2022-08-19T01:20:22;19.60;99.90
12688;DHT22;6408;59.388;17.798;2022-08-19T01:22:53;19.60;99.90
12688;DHT22;6408;59.388;17.798;2022-08-19T01:25:22;19.60;99.90
12688;DHT22;6408;59.388;17.798;2022-08-19T01:27:52;19.70;99.90
12688;DHT22;6408;59.388;17.798;2022-08-19T01:30:23;19.70;99.90
12688;DHT22;6408;59.388;17.798;2022-08-19T01:32:50;19.70;99.90
12688;DHT22;6408;59.388;17.798;2022-08-19T01:35:20;19.70;99.90
12688;DHT22;6408;59.388;17.798;2022-08-19T01:37:52;19.70;99.90
12688;DHT22;6408;59.388;17.798;2022-08-19T01:40:22;19.70;99.90
12688;DHT22;6408;59.388;17.798;2022-08-19T01:42:49;19.70;99.90
12688;DHT22;6408;59.388;17.798;2022-08-19T01:45:17;19.80;99.90
12688;DHT22;6408;59.388;17.798;2022-08-19T01:47:44;19.80;99.90
12688;DHT22;6408;59.388;17.798;2022-08-19T01:50:11;19.80;99.90
12688;DHT22;6408;59.388;17.798;2022-08-19T01:52:40;19.90;99.90
12688;DHT22;6408;59.388;17.798;2022-08-19T01:55:16;19.80;99.90
12688;DHT22;6408;59.388;17.798;2022-08-19T01:57:46;19.90;99.90
12688;DHT22;6408;59.388;17.798;2022-08-19T02:00:17;19.90;99.90
12688;DHT22;6408;59.388;17.798;2022-08-19T02:02:44;19.90;99.90
12688;DHT22;6408;59.388;17.798;2022-08-19T02:05:11;19.90;99.90
12688;DHT22;6408;59.388;17.798;2022-08-19T02:07:39;19.90;99.90
12688;DHT22;6408;59.388;17.798;2022-08-19T02:10:11;19.90;99.90
12688;DHT22;6408;59.388;17.798;2022-08-19T02:12:38;19.90;99.90
12688;DHT22;6408;59.388;17.798;2022-08-19T02:15:06;19.90;99.90
12688;DHT22;6408;59.388;17.798;2022-08-19T02:17:33;20.00;99.90
12688;DHT22;6408;59.388;17.798;2022-08-19T02:20:00;20.00;99.90
12688;DHT22;6408;59.388;17.798;2022-08-19T02:22:27;20.00;99.90
12688;DHT22;6408;59.388;17.798;2022-08-19T02:24:54;20.00;99.90
12688;DHT22;6408;59.388;17.798;2022-08-19T02:27:22;19.90;99.90
12688;DHT22;6408;59.388;17.798;2022-08-19T02:29:50;20.00;99.90
12688;DHT22;6408;59.388;17.798;2022-08-19T02:32:18;20.00;99.90
12688;DHT22;6408;59.388;17.798;2022-08-19T02:34:45;20.00;99.90
12688;DHT22;6408;59.388;17.798;2022-08-19T02:37:13;20.00;99.90
12688;DHT22;6408;59.388;17.798;2022-08-19T02:39:53;20.10;99.90
12688;DHT22;6408;59.388;17.798;2022-08-19T02:42:21;20.00;99.90
12688;DHT22;6408;59.388;17.798;2022-08-19T02:44:48;20.00;99.90
12688;DHT22;6408;59.388;17.798;2022-08-19T02:47:15;20.00;99.90
12688;DHT22;6408;59.388;17.798;2022-08-19T02:49:42;20.00;99.90
12688;DHT22;6408;59.388;17.798;2022-08-19T02:52:08;20.00;99.90
12688;DHT22;6408;59.388;17.798;2022-08-19T02:54:37;19.90;99.90
12688;DHT22;6408;59.388;17.798;2022-08-19T02:57:04;19.90;99.90
12688;DHT22;6408;59.388;17.798;2022-08-19T02:59:32;19.90;99.90
12688;DHT22;6408;59.388;17.798;2022-08-19T03:01:59;19.90;99.90
12688;DHT22;6408;59.388;17.798;2022-08-19T03:04:26;20.00;99.90
12688;DHT22;6408;59.388;17.798;2022-08-19T03:06:53;20.00;99.90
12688;DHT22;6408;59.388;17.798;2022-08-19T03:09:20;20.10;99.90
12688;DHT22;6408;59.388;17.798;2022-08-19T03:11:47;20.10;99.90
12688;DHT22;6408;59.388;17.798;2022-08-19T03:14:14;20.10;99.90
12688;DHT22;6408;59.388;17.798;2022-08-19T03:16:45;20.10;99.90
12688;DHT22;6408;59.388;17.798;2022-08-19T03:19:12;20.10;99.90
12688;DHT22;6408;59.388;17.798;2022-08-19T03:21:39;20.10;99.90
12688;DHT22;6408;59.388;17.798;2022-08-19T03:24:08;20.00;99.90
12688;DHT22;6408;59.388;17.798;2022-08-19T03:26:38;20.00;99.90
12688;DHT22;6408;59.388;17.798;2022-08-19T03:29:06;20.00;99.90
12688;DHT22;6408;59.388;17.798;2022-08-19T03:31:35;20.00;99.90
12688;DHT22;6408;59.388;17.798;2022-08-19T03:34:03;20.00;99.90
12688;DHT22;6408;59.388;17.798;2022-08-19T03:36:30;20.00;99.90
12688;DHT22;6408;59.388;17.798;2022-08-19T03:38:59;20.20;99.90
12688;DHT22;6408;59.388;17.798;2022-08-19T03:41:29;20.10;99.90
12688;DHT22;6408;59.388;17.798;2022-08-19T03:43:56;20.10;99.90
12688;DHT22;6408;59.388;17.798;2022-08-19T03:46:28;20.10;99.90
12688;DHT22;6408;59.388;17.798;2022-08-19T03:48:57;20.20;99.90
12688;DHT22;6408;59.388;17.798;2022-08-19T03:51:28;20.30;99.90
12688;DHT22;6408;59.388;17.798;2022-08-19T03:53:58;20.20;99.90
12688;DHT22;6408;59.388;17.798;2022-08-19T03:56:27;20.20;99.90
12688;DHT22;6408;59.388;17.798;2022-08-19T03:58:54;20.20;99.90
12688;DHT22;6408;59.388;17.798;2022-08-19T04:01:23;20.20;99.90
12688;DHT22;6408;59.388;17.798;2022-08-19T04:03:52;20.20;99.90
12688;DHT22;6408;59.388;17.798;2022-08-19T04:06:21;20.20;99.90
12688;DHT22;6408;59.388;17.798;2022-08-19T04:08:51;20.20;99.90
12688;DHT22;6408;59.388;17.798;2022-08-19T04:11:22;20.30;99.90
12688;DHT22;6408;59.388;17.798;2022-08-19T04:13:50;20.20;99.90
12688;DHT22;6408;59.388;17.798;2022-08-19T04:16:18;20.30;99.90
12688;DHT22;6408;59.388;17.798;2022-08-19T04:18:45;20.30;99.90
12688;DHT22;6408;59.388;17.798;2022-08-19T04:21:16;20.30;99.90
12688;DHT22;6408;59.388;17.798;2022-08-19T04:23:43;20.30;99.90
12688;DHT22;6408;59.388;17.798;2022-08-19T04:26:13;20.40;99.90
12688;DHT22;6408;59.388;17.798;2022-08-19T04:28:41;20.40;99.90
12688;DHT22;6408;59.388;17.798;2022-08-19T04:31:13;20.50;99.90
12688;DHT22;6408;59.388;17.798;2022-08-19T04:33:41;20.50;99.90
12688;DHT22;6408;59.388;17.798;2022-08-19T04:36:08;20.50;99.90
12688;DHT22;6408;59.388;17.798;2022-08-19T04:38:41;20.50;99.90
12688;DHT22;6408;59.388;17.798;2022-08-19T04:41:08;20.50;99.90
12688;DHT22;6408;59.388;17.798;2022-08-19T04:44:05;20.50;99.90
12688;DHT22;6408;59.388;17.798;2022-08-19T04:46:32;20.50;99.90
12688;DHT22;6408;59.388;17.798;2022-08-19T04:49:01;20.50;99.90
12688;DHT22;6408;59.388;17.798;2022-08-19T04:51:30;20.60;99.90
12688;DHT22;6408;59.388;17.798;2022-08-19T04:53:57;20.70;99.90
12688;DHT22;6408;59.388;17.798;2022-08-19T04:56:25;20.60;99.90
12688;DHT22;6408;59.388;17.798;2022-08-19T04:58:54;20.70;99.90
12688;DHT22;6408;59.388;17.798;2022-08-19T05:01:25;20.70;99.90
12688;DHT22;6408;59.388;17.798;2022-08-19T05:03:53;20.70;99.90
12688;DHT22;6408;59.388;17.798;2022-08-19T05:06:23;20.80;99.90
12688;DHT22;6408;59.388;17.798;2022-08-19T05:08:50;20.80;99.90
12688;DHT22;6408;59.388;17.798;2022-08-19T05:11:18;20.90;99.90
12688;DHT22;6408;59.388;17.798;2022-08-19T05:13:47;20.90;99.90
12688;DHT22;6408;59.388;17.798;2022-08-19T05:16:16;20.90;99.90
12688;DHT22;6408;59.388;17.798;2022-08-19T05:18:45;20.90;99.90
12688;DHT22;6408;59.388;17.798;2022-08-19T05:21:31;20.90;99.90
12688;DHT22;6408;59.388;17.798;2022-08-19T05:24:15;21.00;99.90
12688;DHT22;6408;59.388;17.798;2022-08-19T05:26:44;21.00;99.90
12688;DHT22;6408;59.388;17.798;2022-08-19T05:29:13;21.00;99.90
12688;DHT22;6408;59.388;17.798;2022-08-19T05:31:40;21.10;99.90
12688;DHT22;6408;59.388;17.798;2022-08-19T05:34:09;21.10;99.90
12688;DHT22;6408;59.388;17.798;2022-08-19T05:36:37;21.10;99.90
12688;DHT22;6408;59.388;17.798;2022-08-19T05:39:05;21.20;99.90
12688;DHT22;6408;59.388;17.798;2022-08-19T05:41:32;21.30;99.90
12688;DHT22;6408;59.388;17.798;2022-08-19T05:44:02;21.30;99.90
12688;DHT22;6408;59.388;17.798;2022-08-19T05:46:31;21.30;99.90
12688;DHT22;6408;59.388;17.798;2022-08-19T05:48:58;21.40;99.90
12688;DHT22;6408;59.388;17.798;2022-08-19T05:51:26;21.40;99.90
12688;DHT22;6408;59.388;17.798;2022-08-19T05:53:53;21.40;99.90
12688;DHT22;6408;59.388;17.798;2022-08-19T05:56:20;21.40;99.90
12688;DHT22;6408;59.388;17.798;2022-08-19T05:58:47;21.40;99.90
12688;DHT22;6408;59.388;17.798;2022-08-19T06:01:17;21.50;99.90
12688;DHT22;6408;59.388;17.798;2022-08-19T06:03:45;22.00;99.90
12688;DHT22;6408;59.388;17.798;2022-08-19T06:06:14;22.30;99.90
12688;DHT22;6408;59.388;17.798;2022-08-19T06:08:42;22.50;99.90
12688;DHT22;6408;59.388;17.798;2022-08-19T06:11:17;23.10;99.90
12688;DHT22;6408;59.388;17.798;2022-08-19T06:13:45;23.40;99.90
12688;DHT22;6408;59.388;17.798;2022-08-19T06:16:13;26.90;99.90
12688;DHT22;6408;59.388;17.798;2022-08-19T06:18:44;30.30;99.90
12688;DHT22;6408;59.388;17.798;2022-08-19T06:21:11;32.10;99.90
12688;DHT22;6408;59.388;17.798;2022-08-19T06:23:39;31.50;99.90
12688;DHT22;6408;59.388;17.798;2022-08-19T06:26:11;29.90;99.90
12688;DHT22;6408;59.388;17.798;2022-08-19T06:28:38;28.80;99.90
12688;DHT22;6408;59.388;17.798;2022-08-19T06:31:08;29.30;99.90
12688;DHT22;6408;59.388;17.798;2022-08-19T06:33:35;31.40;99.90
12688;DHT22;6408;59.388;17.798;2022-08-19T06:36:03;30.70;99.90
12688;DHT22;6408;59.388;17.798;2022-08-19T06:38:29;31.50;99.90
12688;DHT22;6408;59.388;17.798;2022-08-19T06:41:01;33.30;99.90
12688;DHT22;6408;59.388;17.798;2022-08-19T06:43:29;34.70;99.90
12688;DHT22;6408;59.388;17.798;2022-08-19T06:45:56;36.00;99.90
12688;DHT22;6408;59.388;17.798;2022-08-19T06:48:24;36.70;99.90
12688;DHT22;6408;59.388;17.798;2022-08-19T06:50:51;37.10;99.90
12688;DHT22;6408;59.388;17.798;2022-08-19T06:53:18;37.50;99.90
12688;DHT22;6408;59.388;17.798;2022-08-19T06:55:45;37.40;99.90
12688;DHT22;6408;59.388;17.798;2022-08-19T06:58:12;37.70;99.90
12688;DHT22;6408;59.388;17.798;2022-08-19T07:00:40;37.50;99.90
12688;DHT22;6408;59.388;17.798;2022-08-19T07:03:07;37.30;99.90
12688;DHT22;6408;59.388;17.798;2022-08-19T07:05:38;37.00;99.90
12688;DHT22;6408;59.388;17.798;2022-08-19T07:08:05;36.50;99.90
12688;DHT22;6408;59.388;17.798;2022-08-19T07:10:33;36.20;99.90
12688;DHT22;6408;59.388;17.798;2022-08-19T07:13:00;35.30;99.90
12688;DHT22;6408;59.388;17.798;2022-08-19T07:15:27;34.40;99.90
12688;DHT22;6408;59.388;17.798;2022-08-19T07:17:55;33.90;99.90
12688;DHT22;6408;59.388;17.798;2022-08-19T07:20:22;32.80;99.90
12688;DHT22;6408;59.388;17.798;2022-08-19T07:22:49;32.10;99.90
12688;DHT22;6408;59.388;17.798;2022-08-19T07:25:16;31.40;99.90
12688;DHT22;6408;59.388;17.798;2022-08-19T07:27:43;31.00;99.90
12688;DHT22;6408;59.388;17.798;2022-08-19T07:30:11;30.70;99.90
12688;DHT22;6408;59.388;17.798;2022-08-19T07:32:38;30.30;99.90
12688;DHT22;6408;59.388;17.798;2022-08-19T07:35:08;30.10;99.90
12688;DHT22;6408;59.388;17.798;2022-08-19T07:37:35;30.00;99.90
12688;DHT22;6408;59.388;17.798;2022-08-19T07:40:04;29.80;99.90
12688;DHT22;6408;59.388;17.798;2022-08-19T07:42:30;29.60;99.90
12688;DHT22;6408;59.388;17.798;2022-08-19T07:44:58;29.50;99.90
12688;DHT22;6408;59.388;17.798;2022-08-19T07:47:24;29.40;99.90
12688;DHT22;6408;59.388;17.798;2022-08-19T07:49:53;29.10;99.90
12688;DHT22;6408;59.388;17.798;2022-08-19T07:52:22;28.90;99.90
12688;DHT22;6408;59.388;17.798;2022-08-19T07:54:49;28.70;99.90
12688;DHT22;6408;59.388;17.798;2022-08-19T07:57:16;28.50;99.90
12688;DHT22;6408;59.388;17.798;2022-08-19T07:59:44;28.60;99.90
12688;DHT22;6408;59.388;17.798;2022-08-19T08:02:11;28.60;99.90
12688;DHT22;6408;59.388;17.798;2022-08-19T08:04:38;28.80;99.90
12688;DHT22;6408;59.388;17.798;2022-08-19T08:07:23;28.80;99.90
12688;DHT22;6408;59.388;17.798;2022-08-19T08:10:07;28.90;99.90
12688;DHT22;6408;59.388;17.798;2022-08-19T08:12:38;28.90;99.90
12688;DHT22;6408;59.388;17.798;2022-08-19T08:15:09;28.70;99.90
12688;DHT22;6408;59.388;17.798;2022-08-19T08:17:36;28.80;99.90
12688;DHT22;6408;59.388;17.798;2022-08-19T08:20:04;28.90;99.90
12688;DHT22;6408;59.388;17.798;2022-08-19T08:22:34;28.90;99.90
12688;DHT22;6408;59.388;17.798;2022-08-19T08:25:22;29.10;99.90
12688;DHT22;6408;59.388;17.798;2022-08-19T08:27:49;29.30;99.90
12688;DHT22;6408;59.388;17.798;2022-08-19T08:30:19;29.30;99.90
12688;DHT22;6408;59.388;17.798;2022-08-19T08:32:47;29.40;99.90
12688;DHT22;6408;59.388;17.798;2022-08-19T08:35:16;29.40;99.90
12688;DHT22;6408;59.388;17.798;2022-08-19T08:37:45;29.50;99.90
12688;DHT22;6408;59.388;17.798;2022-08-19T08:40:18;29.60;99.90
12688;DHT22;6408;59.388;17.798;2022-08-19T08:42:50;29.60;99.90
12688;DHT22;6408;59.388;17.798;2022-08-19T08:45:18;29.60;99.90
12688;DHT22;6408;59.388;17.798;2022-08-19T08:47:48;29.50;99.90
12688;DHT22;6408;59.388;17.798;2022-08-19T08:50:20;29.40;99.90
12688;DHT22;6408;59.388;17.798;2022-08-19T08:52:53;29.60;99.90
12688;DHT22;6408;59.388;17.798;2022-08-19T08:55:24;29.70;99.90
12688;DHT22;6408;59.388;17.798;2022-08-19T08:57:54;29.80;99.90
12688;DHT22;6408;59.388;17.798;2022-08-19T09:00:25;29.90;99.90
12688;DHT22;6408;59.388;17.798;2022-08-19T09:02:53;30.00;99.90
12688;DHT22;6408;59.388;17.798;2022-08-19T09:05:21;30.00;99.90
12688;DHT22;6408;59.388;17.798;2022-08-19T09:07:58;30.10;99.90
12688;DHT22;6408;59.388;17.798;2022-08-19T09:10:30;30.20;99.90
12688;DHT22;6408;59.388;17.798;2022-08-19T09:13:06;30.40;99.90
12688;DHT22;6408;59.388;17.798;2022-08-19T09:15:38;30.50;99.90
12688;DHT22;6408;59.388;17.798;2022-08-19T09:18:08;30.70;99.90
12688;DHT22;6408;59.388;17.798;2022-08-19T09:20:35;30.70;99.90
12688;DHT22;6408;59.388;17.798;2022-08-19T09:23:03;30.80;99.90
12688;DHT22;6408;59.388;17.798;2022-08-19T09:25:30;30.80;99.90
12688;DHT22;6408;59.388;17.798;2022-08-19T09:28:00;30.90;99.90
12688;DHT22;6408;59.388;17.798;2022-08-19T09:30:30;31.00;99.90
12688;DHT22;6408;59.388;17.798;2022-08-19T09:32:57;31.10;99.90
12688;DHT22;6408;59.388;17.798;2022-08-19T09:35:26;31.20;99.90
12688;DHT22;6408;59.388;17.798;2022-08-19T09:37:54;31.10;99.90
12688;DHT22;6408;59.388;17.798;2022-08-19T09:40:25;31.00;99.90
12688;DHT22;6408;59.388;17.798;2022-08-19T09:42:52;31.00;99.90
12688;DHT22;6408;59.388;17.798;2022-08-19T09:45:21;31.10;99.90
12688;DHT22;6408;59.388;17.798;2022-08-19T09:47:49;31.30;99.90
12688;DHT22;6408;59.388;17.798;2022-08-19T09:50:16;31.30;99.90
12688;DHT22;6408;59.388;17.798;2022-08-19T09:52:44;31.20;99.90
12688;DHT22;6408;59.388;17.798;2022-08-19T09:55:11;31.10;99.90
12688;DHT22;6408;59.388;17.798;2022-08-19T09:57:39;30.80;99.90
12688;DHT22;6408;59.388;17.798;2022-08-19T10:00:08;30.90;99.90
12688;DHT22;6408;59.388;17.798;2022-08-19T10:02:36;31.10;99.90
12688;DHT22;6408;59.388;17.798;2022-08-19T10:05:03;31.30;99.90
12688;DHT22;6408;59.388;17.798;2022-08-19T10:07:59;31.50;99.90
12688;DHT22;6408;59.388;17.798;2022-08-19T10:10:27;31.60;99.90
12688;DHT22;6408;59.388;17.798;2022-08-19T10:12:55;31.70;99.90
12688;DHT22;6408;59.388;17.798;2022-08-19T10:15:22;31.70;99.90
12688;DHT22;6408;59.388;17.798;2022-08-19T10:17:48;31.80;99.90
12688;DHT22;6408;59.388;17.798;2022-08-19T10:20:15;31.90;99.90
12688;DHT22;6408;59.388;17.798;2022-08-19T10:22:42;31.90;99.90
12688;DHT22;6408;59.388;17.798;2022-08-19T10:25:09;31.90;99.90
12688;DHT22;6408;59.388;17.798;2022-08-19T10:27:36;32.00;99.90
12688;DHT22;6408;59.388;17.798;2022-08-19T10:30:06;32.00;99.90
12688;DHT22;6408;59.388;17.798;2022-08-19T10:32:33;32.00;99.90
12688;DHT22;6408;59.388;17.798;2022-08-19T10:35:00;32.10;99.90
12688;DHT22;6408;59.388;17.798;2022-08-19T10:37:27;32.10;99.90
12688;DHT22;6408;59.388;17.798;2022-08-19T10:39:56;32.00;99.90
12688;DHT22;6408;59.388;17.798;2022-08-19T10:42:22;32.00;99.90
12688;DHT22;6408;59.388;17.798;2022-08-19T10:44:49;32.10;99.90
12688;DHT22;6408;59.388;17.798;2022-08-19T10:47:18;32.20;99.90
12688;DHT22;6408;59.388;17.798;2022-08-19T10:49:44;32.30;99.90
12688;DHT22;6408;59.388;17.798;2022-08-19T10:52:29;32.40;99.90
12688;DHT22;6408;59.388;17.798;2022-08-19T10:55:03;32.50;99.90
12688;DHT22;6408;59.388;17.798;2022-08-19T10:57:48;32.60;99.90
12688;DHT22;6408;59.388;17.798;2022-08-19T11:00:15;32.70;99.90
12688;DHT22;6408;59.388;17.798;2022-08-19T11:02:43;32.70;99.90
12688;DHT22;6408;59.388;17.798;2022-08-19T11:05:11;32.80;99.90
12688;DHT22;6408;59.388;17.798;2022-08-19T11:07:39;32.80;99.90
12688;DHT22;6408;59.388;17.798;2022-08-19T11:10:12;33.00;99.90
12688;DHT22;6408;59.388;17.798;2022-08-19T11:12:40;33.10;99.90
12688;DHT22;6408;59.388;17.798;2022-08-19T11:15:08;33.20;99.90
12688;DHT22;6408;59.388;17.798;2022-08-19T11:17:36;33.30;99.90
12688;DHT22;6408;59.388;17.798;2022-08-19T11:20:08;33.30;99.90
12688;DHT22;6408;59.388;17.798;2022-08-19T11:22:35;33.20;99.90
12688;DHT22;6408;59.388;17.798;2022-08-19T11:25:02;33.20;99.90
12688;DHT22;6408;59.388;17.798;2022-08-19T11:27:29;33.10;99.90
12688;DHT22;6408;59.388;17.798;2022-08-19T11:29:56;32.90;99.90
12688;DHT22;6408;59.388;17.798;2022-08-19T11:32:22;32.90;99.90
12688;DHT22;6408;59.388;17.798;2022-08-19T11:34:49;32.90;99.90
12688;DHT22;6408;59.388;17.798;2022-08-19T11:37:18;33.00;99.90
12688;DHT22;6408;59.388;17.798;2022-08-19T11:39:45;33.00;99.90
12688;DHT22;6408;59.388;17.798;2022-08-19T11:42:12;33.30;99.90
12688;DHT22;6408;59.388;17.798;2022-08-19T11:44:56;33.30;99.90
12688;DHT22;6408;59.388;17.798;2022-08-19T11:47:23;33.30;99.90
12688;DHT22;6408;59.388;17.798;2022-08-19T11:49:49;33.40;99.90
12688;DHT22;6408;59.388;17.798;2022-08-19T11:52:18;33.60;99.90
12688;DHT22;6408;59.388;17.798;2022-08-19T11:54:45;33.60;99.90
12688;DHT22;6408;59.388;17.798;2022-08-19T11:57:11;33.60;99.90
12688;DHT22;6408;59.388;17.798;2022-08-19T11:59:40;33.50;99.90
12688;DHT22;6408;59.388;17.798;2022-08-19T12:02:06;33.50;99.90
12688;DHT22;6408;59.388;17.798;2022-08-19T12:04:34;33.60;99.90
12688;DHT22;6408;59.388;17.798;2022-08-19T12:07:01;33.60;99.90
12688;DHT22;6408;59.388;17.798;2022-08-19T12:09:30;33.60;99.90
12688;DHT22;6408;59.388;17.798;2022-08-19T12:11:59;33.60;99.90
12688;DHT22;6408;59.388;17.798;2022-08-19T12:14:27;33.80;99.90
12688;DHT22;6408;59.388;17.798;2022-08-19T12:16:56;33.70;99.90
12688;DHT22;6408;59.388;17.798;2022-08-19T12:19:23;33.60;99.90
12688;DHT22;6408;59.388;17.798;2022-08-19T12:21:50;33.60;99.90
12688;DHT22;6408;59.388;17.798;2022-08-19T12:24:18;33.60;99.90
12688;DHT22;6408;59.388;17.798;2022-08-19T12:26:50;33.70;99.90
12688;DHT22;6408;59.388;17.798;2022-08-19T12:29:17;33.80;99.90
12688;DHT22;6408;59.388;17.798;2022-08-19T12:31:44;33.60;99.90
12688;DHT22;6408;59.388;17.798;2022-08-19T12:34:11;33.60;99.90
12688;DHT22;6408;59.388;17.798;2022-08-19T12:36:38;33.50;99.90
12688;DHT22;6408;59.388;17.798;2022-08-19T12:39:05;33.30;99.90
12688;DHT22;6408;59.388;17.798;2022-08-19T12:41:31;33.00;99.90
12688;DHT22;6408;59.388;17.798;2022-08-19T12:43:59;32.90;99.90
12688;DHT22;6408;59.388;17.798;2022-08-19T12:46:26;32.80;99.90
12688;DHT22;6408;59.388;17.798;2022-08-19T12:48:53;32.90;99.90
12688;DHT22;6408;59.388;17.798;2022-08-19T12:51:20;33.10;99.90
12688;DHT22;6408;59.388;17.798;2022-08-19T12:53:47;33.40;99.90
12688;DHT22;6408;59.388;17.798;2022-08-19T12:56:15;33.50;99.90
12688;DHT22;6408;59.388;17.798;2022-08-19T12:58:42;33.40;99.90
12688;DHT22;6408;59.388;17.798;2022-08-19T13:01:13;33.10;99.90
12688;DHT22;6408;59.388;17.798;2022-08-19T13:03:40;33.00;99.90
12688;DHT22;6408;59.388;17.798;2022-08-19T13:06:09;33.10;99.90
12688;DHT22;6408;59.388;17.798;2022-08-19T13:08:36;33.10;99.90
12688;DHT22;6408;59.388;17.798;2022-08-19T13:11:09;33.10;99.90
12688;DHT22;6408;59.388;17.798;2022-08-19T13:13:37;33.10;99.90
12688;DHT22;6408;59.388;17.798;2022-08-19T13:16:06;33.10;99.90
12688;DHT22;6408;59.388;17.798;2022-08-19T13:18:34;33.10;99.90
12688;DHT22;6408;59.388;17.798;2022-08-19T13:21:02;33.20;99.90
12688;DHT22;6408;59.388;17.798;2022-08-19T13:23:30;33.10;99.90
12688;DHT22;6408;59.388;17.798;2022-08-19T13:25:57;33.20;99.90
12688;DHT22;6408;59.388;17.798;2022-08-19T13:28:24;33.30;99.90
12688;DHT22;6408;59.388;17.798;2022-08-19T13:30:51;33.30;99.90
12688;DHT22;6408;59.388;17.798;2022-08-19T13:33:37;33.30;99.90
12688;DHT22;6408;59.388;17.798;2022-08-19T13:36:04;33.40;99.90
12688;DHT22;6408;59.388;17.798;2022-08-19T13:38:33;33.40;99.90
12688;DHT22;6408;59.388;17.798;2022-08-19T13:41:05;33.40;99.90
12688;DHT22;6408;59.388;17.798;2022-08-19T13:43:32;33.20;99.90
12688;DHT22;6408;59.388;17.798;2022-08-19T13:45:59;33.30;99.90
12688;DHT22;6408;59.388;17.798;2022-08-19T13:48:27;33.30;99.90
12688;DHT22;6408;59.388;17.798;2022-08-19T13:50:56;33.40;99.90
12688;DHT22;6408;59.388;17.798;2022-08-19T13:53:23;33.30;99.90
12688;DHT22;6408;59.388;17.798;2022-08-19T13:55:50;33.30;99.90
12688;DHT22;6408;59.388;17.798;2022-08-19T13:58:18;33.30;99.90
12688;DHT22;6408;59.388;17.798;2022-08-19T14:00:46;33.20;99.90
12688;DHT22;6408;59.388;17.798;2022-08-19T14:03:14;33.20;99.90
12688;DHT22;6408;59.388;17.798;2022-08-19T14:05:41;32.90;99.90
12688;DHT22;6408;59.388;17.798;2022-08-19T14:08:09;32.60;99.90
12688;DHT22;6408;59.388;17.798;2022-08-19T14:10:39;32.40;99.90
12688;DHT22;6408;59.388;17.798;2022-08-19T14:13:06;32.00;99.90
12688;DHT22;6408;59.388;17.798;2022-08-19T14:15:33;31.90;99.90
12688;DHT22;6408;59.388;17.798;2022-08-19T14:18:00;32.00;99.90
12688;DHT22;6408;59.388;17.798;2022-08-19T14:20:27;31.90;99.90
12688;DHT22;6408;59.388;17.798;2022-08-19T14:22:54;31.90;99.90
12688;DHT22;6408;59.388;17.798;2022-08-19T14:25:25;32.10;99.90
12688;DHT22;6408;59.388;17.798;2022-08-19T14:27:52;32.00;99.90
12688;DHT22;6408;59.388;17.798;2022-08-19T14:30:22;31.90;99.90
12688;DHT22;6408;59.388;17.798;2022-08-19T14:32:50;31.90;99.90
12688;DHT22;6408;59.388;17.798;2022-08-19T14:35:18;31.90;99.90
12688;DHT22;6408;59.388;17.798;2022-08-19T14:37:45;31.80;99.90
12688;DHT22;6408;59.388;17.798;2022-08-19T14:40:13;31.80;99.90
12688;DHT22;6408;59.388;17.798;2022-08-19T14:42:42;31.80;99.90
12688;DHT22;6408;59.388;17.798;2022-08-19T14:45:10;31.90;99.90
12688;DHT22;6408;59.388;17.798;2022-08-19T14:47:37;31.80;99.90
12688;DHT22;6408;59.388;17.798;2022-08-19T14:50:05;31.60;99.90
12688;DHT22;6408;59.388;17.798;2022-08-19T14:52:33;31.50;99.90
12688;DHT22;6408;59.388;17.798;2022-08-19T14:54:59;31.50;99.90
12688;DHT22;6408;59.388;17.798;2022-08-19T14:57:26;31.60;99.90
12688;DHT22;6408;59.388;17.798;2022-08-19T14:59:54;31.70;99.90
12688;DHT22;6408;59.388;17.798;2022-08-19T15:02:22;31.80;99.90
12688;DHT22;6408;59.388;17.798;2022-08-19T15:04:49;31.90;99.90
12688;DHT22;6408;59.388;17.798;2022-08-19T15:07:17;31.70;99.90
12688;DHT22;6408;59.388;17.798;2022-08-19T15:09:44;31.70;99.90
12688;DHT22;6408;59.388;17.798;2022-08-19T15:12:11;31.70;99.90
12688;DHT22;6408;59.388;17.798;2022-08-19T15:14:37;31.60;99.90
12688;DHT22;6408;59.388;17.798;2022-08-19T15:17:06;31.50;99.90
12688;DHT22;6408;59.388;17.798;2022-08-19T15:19:33;31.50;99.90
12688;DHT22;6408;59.388;17.798;2022-08-19T15:22:01;31.50;99.90
12688;DHT22;6408;59.388;17.798;2022-08-19T15:24:28;31.40;99.90
12688;DHT22;6408;59.388;17.798;2022-08-19T15:26:55;31.30;99.90
12688;DHT22;6408;59.388;17.798;2022-08-19T15:29:22;31.10;99.90
12688;DHT22;6408;59.388;17.798;2022-08-19T15:31:50;30.80;99.90
12688;DHT22;6408;59.388;17.798;2022-08-19T15:34:18;30.70;99.90
12688;DHT22;6408;59.388;17.798;2022-08-19T15:36:45;30.70;99.90
12688;DHT22;6408;59.388;17.798;2022-08-19T15:39:11;30.60;99.90